EWG11Y EDDL-LEAL
Flight info
| Callsign | EWG11Y |
|---|---|
| Flight time | 2h 39m |
| Altitude | 39000 |
| Route | DODEN7Z/05R DODEN Y852 NATOR DCT LUTIX DCT BENOT DCT NEMOS DCT GEVEA DCT INCUS DCT BALSI DCT RETNO DCT TUPOX DCT MTG DCT DIVKO DCT VATIR DCT PIVUS DCT SULID DCT SISMO DCT AKAMU DCT ADX DCT OKITI DCT IBEBA DCT BAVER M603 GERVU |
| Aircraft | A20N/M-SDE2E3FGHIRWXY/LB1 |
Departure
| Time | 2026-05-06 09:15 |
|---|---|
| Airport | Düsseldorf Airport (EDDL) |
Arrival
| Time | 2026-05-06 11:54 |
|---|---|
| Airport | Alicante-Elche Miguel Hernández Airport (LEAL) |
| Time | Latitude | Longitude | Altitude | Speed | Heading |
|---|---|---|---|---|---|
| 2026-05-06 08:52 | 51.27446 | 6.75568 | 130 ft | 0 kts | 243° |
| 2026-05-06 09:07 | 51.27452 | 6.75585 | 126 ft | 2 kts | 243° |
| 2026-05-06 09:07 | 51.27459 | 6.75606 | 127 ft | 2 kts | 254° |
| 2026-05-06 09:08 | 51.27458 | 6.75631 | 128 ft | 2 kts | 288° |
| 2026-05-06 09:08 | 51.27453 | 6.75656 | 132 ft | 2 kts | 288° |
| 2026-05-06 09:08 | 51.27449 | 6.75674 | 132 ft | 0 kts | 292° |
| 2026-05-06 09:10 | 51.27451 | 6.75669 | 132 ft | 3 kts | 295° |
| 2026-05-06 09:11 | 51.27484 | 6.75628 | 131 ft | 10 kts | 331° |
| 2026-05-06 09:11 | 51.27517 | 6.75600 | 128 ft | 9 kts | 332° |
| 2026-05-06 09:11 | 51.27563 | 6.75561 | 126 ft | 6 kts | 333° |
| 2026-05-06 09:11 | 51.27598 | 6.75536 | 127 ft | 6 kts | 342° |
| 2026-05-06 09:12 | 51.27670 | 6.75487 | 124 ft | 16 kts | 333° |
| 2026-05-06 09:12 | 51.27760 | 6.75414 | 124 ft | 3 kts | 333° |
| 2026-05-06 09:12 | 51.27773 | 6.75404 | 122 ft | 6 kts | 333° |
| 2026-05-06 09:12 | 51.27801 | 6.75381 | 121 ft | 4 kts | 333° |
| 2026-05-06 09:13 | 51.27849 | 6.75342 | 120 ft | 8 kts | 333° |
| 2026-05-06 09:13 | 51.27902 | 6.75299 | 121 ft | 11 kts | 333° |
| 2026-05-06 09:13 | 51.27973 | 6.75259 | 116 ft | 9 kts | 356° |
| 2026-05-06 09:13 | 51.28001 | 6.75289 | 115 ft | 14 kts | 52° |
| 2026-05-06 09:14 | 51.28175 | 6.75650 | 119 ft | 67 kts | 51° |
| 2026-05-06 09:14 | 51.28540 | 6.76411 | 127 ft | 121 kts | 51° |
| 2026-05-06 09:14 | 51.29153 | 6.77705 | 310 ft | 156 kts | 51° |
| 2026-05-06 09:14 | 51.29819 | 6.79155 | 688 ft | 178 kts | 50° |
| 2026-05-06 09:15 | 51.30630 | 6.80853 | 972 ft | 199 kts | 51° |
| 2026-05-06 09:15 | 51.31487 | 6.82651 | 1566 ft | 204 kts | 51° |
| 2026-05-06 09:15 | 51.32349 | 6.84463 | 2129 ft | 208 kts | 52° |
| 2026-05-06 09:15 | 51.33247 | 6.86391 | 2510 ft | 228 kts | 53° |
| 2026-05-06 09:16 | 51.34226 | 6.88560 | 2865 ft | 249 kts | 54° |
| 2026-05-06 09:16 | 51.35043 | 6.91087 | 3440 ft | 260 kts | 74° |
| 2026-05-06 09:16 | 51.35182 | 6.93931 | 4168 ft | 263 kts | 95° |
| 2026-05-06 09:16 | 51.34942 | 6.96856 | 4965 ft | 265 kts | 99° |
| 2026-05-06 09:17 | 51.34633 | 6.99781 | 5682 ft | 268 kts | 100° |
| 2026-05-06 09:17 | 51.34316 | 7.02752 | 6407 ft | 271 kts | 100° |
| 2026-05-06 09:17 | 51.34005 | 7.05720 | 7084 ft | 276 kts | 101° |
| 2026-05-06 09:17 | 51.33693 | 7.08787 | 7808 ft | 282 kts | 101° |
| 2026-05-06 09:18 | 51.33375 | 7.11974 | 8425 ft | 293 kts | 101° |
| 2026-05-06 09:18 | 51.33026 | 7.15173 | 9343 ft | 290 kts | 105° |
| 2026-05-06 09:18 | 51.32299 | 7.18120 | 10001 ft | 290 kts | 126° |
| 2026-05-06 09:18 | 51.31002 | 7.20644 | 10422 ft | 301 kts | 136° |
| 2026-05-06 09:19 | 51.29469 | 7.23082 | 10713 ft | 319 kts | 138° |
| 2026-05-06 09:19 | 51.27828 | 7.25619 | 10981 ft | 336 kts | 138° |
| 2026-05-06 09:19 | 51.26118 | 7.28272 | 11239 ft | 352 kts | 137° |
| 2026-05-06 09:19 | 51.24331 | 7.31064 | 11492 ft | 368 kts | 137° |
| 2026-05-06 09:20 | 51.22469 | 7.33986 | 11873 ft | 379 kts | 137° |
| 2026-05-06 09:20 | 51.20573 | 7.36965 | 12455 ft | 384 kts | 137° |
| 2026-05-06 09:20 | 51.18677 | 7.39945 | 13077 ft | 388 kts | 137° |
| 2026-05-06 09:20 | 51.16742 | 7.42984 | 13680 ft | 392 kts | 137° |
| 2026-05-06 09:21 | 51.14774 | 7.46041 | 14270 ft | 395 kts | 137° |
| 2026-05-06 09:21 | 51.12805 | 7.49061 | 14862 ft | 398 kts | 138° |
| 2026-05-06 09:21 | 51.10792 | 7.52137 | 15444 ft | 401 kts | 138° |
| 2026-05-06 09:21 | 51.08758 | 7.55242 | 16015 ft | 404 kts | 138° |
| 2026-05-06 09:22 | 51.06743 | 7.58316 | 16612 ft | 407 kts | 138° |
| 2026-05-06 09:22 | 51.04676 | 7.61465 | 17125 ft | 412 kts | 139° |
| 2026-05-06 09:22 | 51.02598 | 7.64627 | 17663 ft | 415 kts | 139° |
| 2026-05-06 09:22 | 51.00520 | 7.67784 | 18194 ft | 418 kts | 139° |
| 2026-05-06 09:23 | 50.98402 | 7.70996 | 18687 ft | 421 kts | 139° |
| 2026-05-06 09:23 | 50.96159 | 7.74006 | 19179 ft | 421 kts | 147° |
| 2026-05-06 09:23 | 50.93713 | 7.76593 | 19657 ft | 422 kts | 150° |
| 2026-05-06 09:23 | 50.91242 | 7.79035 | 20137 ft | 424 kts | 150° |
| 2026-05-06 09:24 | 50.88727 | 7.81495 | 20602 ft | 426 kts | 150° |
| 2026-05-06 09:24 | 50.86188 | 7.83979 | 21081 ft | 429 kts | 150° |
| 2026-05-06 09:24 | 50.83639 | 7.86473 | 21548 ft | 431 kts | 150° |
| 2026-05-06 09:24 | 50.81076 | 7.88983 | 22034 ft | 434 kts | 150° |
| 2026-05-06 09:25 | 50.78523 | 7.91482 | 22498 ft | 436 kts | 150° |
| 2026-05-06 09:25 | 50.75928 | 7.94020 | 22950 ft | 439 kts | 150° |
| 2026-05-06 09:25 | 50.73320 | 7.96569 | 23386 ft | 441 kts | 150° |
| 2026-05-06 09:25 | 50.70697 | 7.99129 | 23766 ft | 443 kts | 151° |
| 2026-05-06 09:26 | 50.68065 | 8.01694 | 24129 ft | 445 kts | 152° |
| 2026-05-06 09:26 | 50.65448 | 8.04241 | 24465 ft | 447 kts | 152° |
| 2026-05-06 09:26 | 50.62746 | 8.06699 | 24801 ft | 448 kts | 156° |
| 2026-05-06 09:26 | 50.59857 | 8.08599 | 25112 ft | 446 kts | 165° |
| 2026-05-06 09:27 | 50.56850 | 8.09708 | 25565 ft | 440 kts | 174° |
| 2026-05-06 09:27 | 50.53863 | 8.10322 | 26102 ft | 436 kts | 177° |
| 2026-05-06 09:27 | 50.50842 | 8.10768 | 26569 ft | 434 kts | 179° |
| 2026-05-06 09:27 | 50.47828 | 8.11128 | 26996 ft | 433 kts | 179° |
| 2026-05-06 09:28 | 50.44817 | 8.11464 | 27431 ft | 432 kts | 179° |
| 2026-05-06 09:28 | 50.41810 | 8.11804 | 27866 ft | 431 kts | 179° |
| 2026-05-06 09:28 | 50.38855 | 8.12153 | 28287 ft | 430 kts | 179° |
| 2026-05-06 09:28 | 50.35861 | 8.12522 | 28682 ft | 429 kts | 179° |
| 2026-05-06 09:29 | 50.32900 | 8.12900 | 29277 ft | 423 kts | 179° |
| 2026-05-06 09:29 | 50.29977 | 8.13281 | 29761 ft | 421 kts | 179° |
| 2026-05-06 09:29 | 50.27088 | 8.13658 | 30058 ft | 421 kts | 179° |
| 2026-05-06 09:29 | 50.24177 | 8.14037 | 30316 ft | 421 kts | 179° |
| 2026-05-06 09:30 | 50.21253 | 8.14417 | 30572 ft | 421 kts | 179° |
| 2026-05-06 09:30 | 50.18313 | 8.14798 | 30838 ft | 422 kts | 179° |
| 2026-05-06 09:30 | 50.15384 | 8.15177 | 31096 ft | 422 kts | 179° |
| 2026-05-06 09:30 | 50.12488 | 8.15558 | 31331 ft | 421 kts | 178° |
| 2026-05-06 09:31 | 50.09566 | 8.15959 | 31740 ft | 418 kts | 178° |
| 2026-05-06 09:31 | 50.06703 | 8.16359 | 31971 ft | 418 kts | 178° |
| 2026-05-06 09:31 | 50.03797 | 8.16767 | 32158 ft | 419 kts | 178° |
| 2026-05-06 09:31 | 50.00879 | 8.17177 | 32348 ft | 420 kts | 178° |
| 2026-05-06 09:32 | 49.97958 | 8.17585 | 32581 ft | 420 kts | 178° |
| 2026-05-06 09:32 | 49.95040 | 8.17993 | 32797 ft | 420 kts | 178° |
| 2026-05-06 09:32 | 49.92158 | 8.18393 | 33001 ft | 420 kts | 178° |
| 2026-05-06 09:32 | 49.89235 | 8.18799 | 33215 ft | 419 kts | 178° |
| 2026-05-06 09:33 | 49.86336 | 8.19200 | 33629 ft | 415 kts | 178° |
| 2026-05-06 09:33 | 49.83454 | 8.19599 | 33753 ft | 414 kts | 178° |
| 2026-05-06 09:33 | 49.80624 | 8.19990 | 33764 ft | 412 kts | 178° |
| 2026-05-06 09:34 | 49.74888 | 8.20780 | 33765 ft | 412 kts | 178° |
| 2026-05-06 09:34 | 49.69206 | 8.21561 | 33766 ft | 412 kts | 178° |
| 2026-05-06 09:35 | 49.63487 | 8.22345 | 33768 ft | 411 kts | 177° |
| 2026-05-06 09:35 | 49.57823 | 8.23120 | 33771 ft | 411 kts | 177° |
| 2026-05-06 09:36 | 49.52103 | 8.23901 | 33775 ft | 411 kts | 177° |
| 2026-05-06 09:36 | 49.46431 | 8.24674 | 33773 ft | 411 kts | 177° |
| 2026-05-06 09:37 | 49.40735 | 8.25447 | 33782 ft | 412 kts | 177° |
| 2026-05-06 09:37 | 49.35027 | 8.26221 | 33782 ft | 412 kts | 177° |
| 2026-05-06 09:38 | 49.29324 | 8.26993 | 33779 ft | 412 kts | 177° |
| 2026-05-06 09:38 | 49.23591 | 8.27767 | 33780 ft | 412 kts | 177° |
| 2026-05-06 09:39 | 49.17889 | 8.28535 | 33779 ft | 413 kts | 178° |
| 2026-05-06 09:39 | 49.13109 | 8.29177 | 33787 ft | 413 kts | 178° |
| 2026-05-06 09:40 | 49.07373 | 8.29946 | 33781 ft | 413 kts | 178° |
| 2026-05-06 09:40 | 48.98804 | 8.31064 | 33792 ft | 413 kts | 179° |
| 2026-05-06 09:41 | 48.94158 | 8.31296 | 33795 ft | 412 kts | 182° |
| 2026-05-06 09:41 | 48.88444 | 8.31313 | 33799 ft | 412 kts | 182° |
| 2026-05-06 09:42 | 48.82694 | 8.31314 | 33801 ft | 412 kts | 182° |
| 2026-05-06 09:42 | 48.76975 | 8.31360 | 33790 ft | 411 kts | 182° |
| 2026-05-06 09:43 | 48.71270 | 8.31432 | 33796 ft | 408 kts | 182° |
| 2026-05-06 09:43 | 48.65587 | 8.31508 | 33794 ft | 408 kts | 182° |
| 2026-05-06 09:44 | 48.59929 | 8.31581 | 33798 ft | 408 kts | 182° |
| 2026-05-06 09:44 | 48.54235 | 8.31654 | 33795 ft | 408 kts | 182° |
| 2026-05-06 09:45 | 48.48561 | 8.31726 | 33791 ft | 408 kts | 182° |
| 2026-05-06 09:45 | 48.42895 | 8.31797 | 33796 ft | 408 kts | 182° |
| 2026-05-06 09:46 | 48.37226 | 8.31869 | 33798 ft | 408 kts | 182° |
| 2026-05-06 09:46 | 48.31538 | 8.31941 | 33792 ft | 406 kts | 182° |
| 2026-05-06 09:47 | 48.25912 | 8.32013 | 33802 ft | 404 kts | 182° |
| 2026-05-06 09:47 | 48.20336 | 8.31804 | 33801 ft | 401 kts | 189° |
| 2026-05-06 09:48 | 48.14968 | 8.29691 | 33800 ft | 398 kts | 204° |
| 2026-05-06 09:48 | 48.10162 | 8.25676 | 33804 ft | 397 kts | 212° |
| 2026-05-06 09:49 | 48.05504 | 8.21166 | 33810 ft | 397 kts | 213° |
| 2026-05-06 09:49 | 48.00895 | 8.16637 | 33813 ft | 397 kts | 212° |
| 2026-05-06 09:50 | 47.96275 | 8.12159 | 33814 ft | 397 kts | 212° |
| 2026-05-06 09:50 | 47.91613 | 8.07686 | 33826 ft | 396 kts | 212° |
| 2026-05-06 09:51 | 47.87002 | 8.03283 | 33817 ft | 394 kts | 212° |
| 2026-05-06 09:51 | 47.82404 | 7.98901 | 33833 ft | 394 kts | 212° |
| 2026-05-06 09:52 | 47.77768 | 7.94492 | 33826 ft | 393 kts | 212° |
| 2026-05-06 09:52 | 47.73174 | 7.90129 | 33831 ft | 394 kts | 212° |
| 2026-05-06 09:53 | 47.68547 | 7.85743 | 33832 ft | 392 kts | 212° |
| 2026-05-06 09:53 | 47.63974 | 7.81419 | 33828 ft | 392 kts | 212° |
| 2026-05-06 09:54 | 47.59378 | 7.77082 | 33829 ft | 392 kts | 212° |
| 2026-05-06 09:54 | 47.54763 | 7.72736 | 33829 ft | 392 kts | 212° |
| 2026-05-06 09:55 | 47.50182 | 7.68432 | 33829 ft | 389 kts | 212° |
| 2026-05-06 09:55 | 47.45625 | 7.64158 | 33831 ft | 388 kts | 212° |
| 2026-05-06 09:56 | 47.41061 | 7.59887 | 33834 ft | 389 kts | 212° |
| 2026-05-06 09:56 | 47.36469 | 7.55600 | 33832 ft | 389 kts | 212° |
| 2026-05-06 09:57 | 47.31913 | 7.51354 | 33830 ft | 388 kts | 212° |
| 2026-05-06 09:57 | 47.27359 | 7.47121 | 33861 ft | 388 kts | 212° |
| 2026-05-06 09:58 | 47.22757 | 7.42852 | 33865 ft | 391 kts | 211° |
| 2026-05-06 09:58 | 47.18214 | 7.38495 | 33852 ft | 392 kts | 216° |
| 2026-05-06 09:59 | 47.14281 | 7.32916 | 33857 ft | 395 kts | 226° |
| 2026-05-06 09:59 | 47.10785 | 7.26673 | 33843 ft | 396 kts | 228° |
| 2026-05-06 10:00 | 47.07384 | 7.20336 | 33845 ft | 396 kts | 228° |
| 2026-05-06 10:00 | 47.03955 | 7.13969 | 33840 ft | 396 kts | 228° |
| 2026-05-06 10:01 | 47.00531 | 7.07675 | 33864 ft | 396 kts | 228° |
| 2026-05-06 10:01 | 46.97071 | 7.01354 | 33875 ft | 396 kts | 227° |
| 2026-05-06 10:02 | 46.93625 | 6.95076 | 33904 ft | 398 kts | 228° |
| 2026-05-06 10:02 | 46.89845 | 6.89175 | 33885 ft | 400 kts | 219° |
| 2026-05-06 10:03 | 46.85609 | 6.83910 | 33871 ft | 400 kts | 217° |
| 2026-05-06 10:03 | 46.81295 | 6.78788 | 33886 ft | 400 kts | 217° |
| 2026-05-06 10:04 | 46.76939 | 6.73652 | 33866 ft | 400 kts | 217° |
| 2026-05-06 10:04 | 46.72646 | 6.68576 | 33869 ft | 398 kts | 217° |
| 2026-05-06 10:05 | 46.68349 | 6.63492 | 33865 ft | 397 kts | 217° |
| 2026-05-06 10:05 | 46.64062 | 6.58427 | 33858 ft | 397 kts | 217° |
| 2026-05-06 10:06 | 46.59784 | 6.53384 | 33854 ft | 397 kts | 217° |
| 2026-05-06 10:06 | 46.55481 | 6.48322 | 33853 ft | 397 kts | 217° |
| 2026-05-06 10:07 | 46.51176 | 6.43270 | 33871 ft | 401 kts | 217° |
| 2026-05-06 10:07 | 46.46784 | 6.38128 | 33868 ft | 407 kts | 217° |
| 2026-05-06 10:08 | 46.42381 | 6.32980 | 33867 ft | 407 kts | 217° |
| 2026-05-06 10:08 | 46.37963 | 6.27826 | 33890 ft | 407 kts | 217° |
| 2026-05-06 10:09 | 46.33551 | 6.22691 | 33904 ft | 409 kts | 217° |
| 2026-05-06 10:09 | 46.29105 | 6.17570 | 33910 ft | 409 kts | 215° |
| 2026-05-06 10:10 | 46.24171 | 6.13602 | 33906 ft | 408 kts | 201° |
| 2026-05-06 10:10 | 46.18662 | 6.11623 | 33911 ft | 409 kts | 192° |
| 2026-05-06 10:11 | 46.13000 | 6.10334 | 33913 ft | 411 kts | 190° |
| 2026-05-06 10:11 | 46.07353 | 6.09160 | 33935 ft | 412 kts | 190° |
| 2026-05-06 10:12 | 46.01686 | 6.07949 | 33928 ft | 411 kts | 191° |
| 2026-05-06 10:12 | 45.96034 | 6.06711 | 33938 ft | 409 kts | 191° |
| 2026-05-06 10:13 | 45.90435 | 6.05474 | 33939 ft | 408 kts | 191° |
| 2026-05-06 10:13 | 45.84797 | 6.04228 | 33939 ft | 408 kts | 191° |
| 2026-05-06 10:14 | 45.79203 | 6.02992 | 33934 ft | 408 kts | 192° |
| 2026-05-06 10:14 | 45.73615 | 6.01758 | 33931 ft | 406 kts | 192° |
| 2026-05-06 10:15 | 45.68054 | 6.00532 | 33938 ft | 406 kts | 192° |
| 2026-05-06 10:15 | 45.62450 | 5.99299 | 33938 ft | 406 kts | 192° |
| 2026-05-06 10:16 | 45.56883 | 5.98079 | 33937 ft | 405 kts | 192° |
| 2026-05-06 10:16 | 45.51330 | 5.96863 | 33931 ft | 405 kts | 192° |
| 2026-05-06 10:17 | 45.45742 | 5.95527 | 33936 ft | 404 kts | 194° |
| 2026-05-06 10:17 | 45.40270 | 5.93843 | 33925 ft | 403 kts | 196° |
| 2026-05-06 10:18 | 45.34834 | 5.92078 | 33929 ft | 402 kts | 196° |
| 2026-05-06 10:18 | 45.29357 | 5.90334 | 33922 ft | 402 kts | 195° |
| 2026-05-06 10:19 | 45.23904 | 5.88634 | 33919 ft | 402 kts | 195° |
| 2026-05-06 10:19 | 45.18455 | 5.86944 | 33915 ft | 402 kts | 195° |
| 2026-05-06 10:20 | 45.12976 | 5.85249 | 33911 ft | 401 kts | 195° |
| 2026-05-06 10:20 | 45.07536 | 5.83569 | 33910 ft | 401 kts | 195° |
| 2026-05-06 10:21 | 45.02056 | 5.81878 | 33894 ft | 401 kts | 196° |
| 2026-05-06 10:21 | 44.96619 | 5.80200 | 33903 ft | 401 kts | 196° |
| 2026-05-06 10:22 | 44.91162 | 5.78523 | 33906 ft | 401 kts | 196° |
| 2026-05-06 10:22 | 44.85730 | 5.76857 | 33899 ft | 401 kts | 196° |
| 2026-05-06 10:23 | 44.80285 | 5.75190 | 33907 ft | 399 kts | 196° |
| 2026-05-06 10:23 | 44.74840 | 5.73528 | 33900 ft | 398 kts | 196° |
| 2026-05-06 10:24 | 44.69443 | 5.71882 | 33905 ft | 398 kts | 196° |
| 2026-05-06 10:24 | 44.64037 | 5.70235 | 33911 ft | 400 kts | 196° |
| 2026-05-06 10:25 | 44.58543 | 5.68563 | 33910 ft | 403 kts | 196° |
| 2026-05-06 10:25 | 44.53079 | 5.66906 | 33904 ft | 403 kts | 196° |
| 2026-05-06 10:26 | 44.47582 | 5.65243 | 33897 ft | 403 kts | 196° |
| 2026-05-06 10:26 | 44.43022 | 5.63866 | 33915 ft | 402 kts | 196° |
| 2026-05-06 10:27 | 44.37622 | 5.61997 | 33918 ft | 399 kts | 202° |
| 2026-05-06 10:27 | 44.32391 | 5.59317 | 33917 ft | 399 kts | 204° |
| 2026-05-06 10:28 | 44.27255 | 5.56505 | 33893 ft | 398 kts | 205° |
| 2026-05-06 10:28 | 44.22099 | 5.53656 | 33912 ft | 397 kts | 205° |
| 2026-05-06 10:29 | 44.16957 | 5.50834 | 33915 ft | 397 kts | 205° |
| 2026-05-06 10:29 | 44.11830 | 5.48038 | 33922 ft | 396 kts | 205° |
| 2026-05-06 10:30 | 44.06706 | 5.45253 | 33920 ft | 395 kts | 205° |
| 2026-05-06 10:30 | 44.01615 | 5.42493 | 33925 ft | 393 kts | 205° |
| 2026-05-06 10:31 | 43.96505 | 5.39724 | 33925 ft | 393 kts | 205° |
| 2026-05-06 10:31 | 43.91403 | 5.36962 | 33922 ft | 393 kts | 205° |
| 2026-05-06 10:32 | 43.86326 | 5.34218 | 33923 ft | 392 kts | 205° |
| 2026-05-06 10:32 | 43.81223 | 5.31465 | 33933 ft | 393 kts | 205° |
| 2026-05-06 10:33 | 43.76128 | 5.28720 | 33934 ft | 396 kts | 205° |
| 2026-05-06 10:33 | 43.70985 | 5.25956 | 33905 ft | 396 kts | 205° |
| 2026-05-06 10:34 | 43.65859 | 5.23208 | 33945 ft | 394 kts | 205° |
| 2026-05-06 10:34 | 43.60764 | 5.20481 | 33935 ft | 393 kts | 205° |
| 2026-05-06 10:35 | 43.55682 | 5.17764 | 33936 ft | 393 kts | 205° |
| 2026-05-06 10:35 | 43.50568 | 5.15035 | 33926 ft | 393 kts | 205° |
| 2026-05-06 10:36 | 43.45497 | 5.12335 | 33939 ft | 391 kts | 205° |
| 2026-05-06 10:36 | 43.40418 | 5.09593 | 33931 ft | 390 kts | 208° |
| 2026-05-06 10:37 | 43.35758 | 5.05960 | 33938 ft | 386 kts | 216° |
| 2026-05-06 10:37 | 43.31311 | 5.01858 | 33916 ft | 386 kts | 217° |
| 2026-05-06 10:38 | 43.26886 | 4.97656 | 33937 ft | 384 kts | 217° |
| 2026-05-06 10:38 | 43.22502 | 4.93503 | 33953 ft | 384 kts | 217° |
| 2026-05-06 10:39 | 43.18108 | 4.89371 | 33940 ft | 385 kts | 217° |
| 2026-05-06 10:39 | 43.13665 | 4.85209 | 33944 ft | 385 kts | 217° |
| 2026-05-06 10:40 | 43.09256 | 4.81090 | 33940 ft | 384 kts | 217° |
| 2026-05-06 10:40 | 43.04766 | 4.77110 | 33942 ft | 386 kts | 213° |
| 2026-05-06 10:41 | 43.00116 | 4.73488 | 33950 ft | 386 kts | 213° |
| 2026-05-06 10:41 | 42.95408 | 4.69921 | 33949 ft | 386 kts | 212° |
| 2026-05-06 10:42 | 42.90708 | 4.66379 | 33944 ft | 387 kts | 212° |
| 2026-05-06 10:42 | 42.85988 | 4.62820 | 33952 ft | 387 kts | 212° |
| 2026-05-06 10:43 | 42.81287 | 4.59275 | 33952 ft | 387 kts | 212° |
| 2026-05-06 10:44 | 42.74211 | 4.53949 | 33961 ft | 388 kts | 212° |
| 2026-05-06 10:44 | 42.69480 | 4.50395 | 33956 ft | 389 kts | 212° |
| 2026-05-06 10:45 | 42.64741 | 4.46842 | 33967 ft | 389 kts | 212° |
| 2026-05-06 10:45 | 42.60022 | 4.43311 | 33962 ft | 389 kts | 212° |
| 2026-05-06 10:46 | 42.55264 | 4.39756 | 33963 ft | 389 kts | 212° |
| 2026-05-06 10:46 | 42.50550 | 4.36241 | 33962 ft | 389 kts | 212° |
| 2026-05-06 10:47 | 42.45785 | 4.32693 | 33971 ft | 389 kts | 212° |
| 2026-05-06 10:47 | 42.41042 | 4.29168 | 33968 ft | 389 kts | 212° |
| 2026-05-06 10:48 | 42.36310 | 4.25658 | 33972 ft | 389 kts | 212° |
| 2026-05-06 10:48 | 42.31562 | 4.22141 | 33953 ft | 389 kts | 212° |
| 2026-05-06 10:49 | 42.26781 | 4.18607 | 33975 ft | 390 kts | 212° |
| 2026-05-06 10:49 | 42.22017 | 4.15090 | 33975 ft | 391 kts | 212° |
| 2026-05-06 10:50 | 42.17254 | 4.11581 | 33975 ft | 392 kts | 212° |
| 2026-05-06 10:50 | 42.12461 | 4.08057 | 33951 ft | 392 kts | 212° |
| 2026-05-06 10:51 | 42.07676 | 4.04544 | 33975 ft | 392 kts | 212° |
| 2026-05-06 10:51 | 42.02876 | 4.01028 | 33976 ft | 392 kts | 212° |
| 2026-05-06 10:52 | 41.98102 | 3.97535 | 33972 ft | 392 kts | 212° |
| 2026-05-06 10:52 | 41.93326 | 3.94048 | 33975 ft | 392 kts | 212° |
| 2026-05-06 10:53 | 41.88471 | 3.90667 | 33978 ft | 392 kts | 211° |
| 2026-05-06 10:53 | 41.83579 | 3.87396 | 33976 ft | 392 kts | 210° |
| 2026-05-06 10:54 | 41.78704 | 3.84149 | 33977 ft | 392 kts | 211° |
| 2026-05-06 10:54 | 41.73839 | 3.80897 | 33988 ft | 392 kts | 211° |
| 2026-05-06 10:55 | 41.68969 | 3.77638 | 33970 ft | 393 kts | 211° |
| 2026-05-06 10:55 | 41.64058 | 3.74355 | 33977 ft | 394 kts | 211° |
| 2026-05-06 10:56 | 41.59173 | 3.71096 | 33982 ft | 394 kts | 211° |
| 2026-05-06 10:56 | 41.54256 | 3.67822 | 33980 ft | 393 kts | 211° |
| 2026-05-06 10:57 | 41.49375 | 3.64578 | 33952 ft | 393 kts | 211° |
| 2026-05-06 10:57 | 41.44462 | 3.61317 | 33976 ft | 392 kts | 211° |
| 2026-05-06 10:58 | 41.39589 | 3.58089 | 33977 ft | 392 kts | 211° |
| 2026-05-06 10:58 | 41.34721 | 3.54868 | 33980 ft | 392 kts | 211° |
| 2026-05-06 10:59 | 41.29815 | 3.51628 | 33979 ft | 392 kts | 211° |
| 2026-05-06 10:59 | 41.24934 | 3.48411 | 33975 ft | 392 kts | 211° |
| 2026-05-06 11:00 | 41.20062 | 3.45204 | 33977 ft | 392 kts | 211° |
| 2026-05-06 11:00 | 41.15059 | 3.42247 | 33982 ft | 394 kts | 207° |
| 2026-05-06 11:01 | 41.09942 | 3.39631 | 33981 ft | 395 kts | 206° |
| 2026-05-06 11:01 | 41.04791 | 3.37044 | 33981 ft | 396 kts | 206° |
| 2026-05-06 11:02 | 40.99625 | 3.34411 | 33976 ft | 397 kts | 206° |
| 2026-05-06 11:02 | 40.94500 | 3.31777 | 33975 ft | 397 kts | 206° |
| 2026-05-06 11:03 | 40.89339 | 3.29121 | 33977 ft | 397 kts | 206° |
| 2026-05-06 11:03 | 40.84208 | 3.26485 | 33967 ft | 397 kts | 206° |
| 2026-05-06 11:04 | 40.79040 | 3.23836 | 33974 ft | 398 kts | 206° |
| 2026-05-06 11:04 | 40.73896 | 3.21204 | 33974 ft | 398 kts | 206° |
| 2026-05-06 11:05 | 40.68755 | 3.18579 | 33974 ft | 398 kts | 206° |
| 2026-05-06 11:05 | 40.63604 | 3.15953 | 33974 ft | 398 kts | 206° |
| 2026-05-06 11:06 | 40.58604 | 3.12893 | 33974 ft | 394 kts | 212° |
| 2026-05-06 11:06 | 40.53779 | 3.09492 | 33974 ft | 394 kts | 213° |
| 2026-05-06 11:07 | 40.48990 | 3.06037 | 33971 ft | 393 kts | 213° |
| 2026-05-06 11:07 | 40.44168 | 3.02561 | 33970 ft | 394 kts | 213° |
| 2026-05-06 11:08 | 40.39375 | 2.99123 | 33971 ft | 394 kts | 213° |
| 2026-05-06 11:08 | 40.34572 | 2.95690 | 33971 ft | 394 kts | 213° |
| 2026-05-06 11:09 | 40.29740 | 2.92244 | 33971 ft | 394 kts | 213° |
| 2026-05-06 11:09 | 40.24908 | 2.88803 | 33972 ft | 394 kts | 213° |
| 2026-05-06 11:10 | 40.20110 | 2.85392 | 33956 ft | 394 kts | 213° |
| 2026-05-06 11:10 | 40.15251 | 2.81942 | 33968 ft | 395 kts | 213° |
| 2026-05-06 11:11 | 40.10432 | 2.78527 | 33971 ft | 396 kts | 213° |
| 2026-05-06 11:11 | 40.05606 | 2.75112 | 33966 ft | 396 kts | 213° |
| 2026-05-06 11:12 | 40.00751 | 2.71683 | 33963 ft | 396 kts | 213° |
| 2026-05-06 11:12 | 39.95919 | 2.68275 | 33953 ft | 397 kts | 213° |
| 2026-05-06 11:13 | 39.91073 | 2.64863 | 33959 ft | 397 kts | 213° |
| 2026-05-06 11:13 | 39.86203 | 2.61440 | 33947 ft | 396 kts | 213° |
| 2026-05-06 11:14 | 39.81354 | 2.58037 | 33943 ft | 396 kts | 213° |
| 2026-05-06 11:14 | 39.76483 | 2.54623 | 33922 ft | 397 kts | 213° |
| 2026-05-06 11:15 | 39.71621 | 2.51219 | 33934 ft | 399 kts | 213° |
| 2026-05-06 11:15 | 39.67532 | 2.48364 | 33932 ft | 400 kts | 213° |
| 2026-05-06 11:16 | 39.62632 | 2.44945 | 33938 ft | 400 kts | 213° |
| 2026-05-06 11:16 | 39.57846 | 2.41363 | 33938 ft | 396 kts | 219° |
| 2026-05-06 11:17 | 39.53860 | 2.36572 | 33937 ft | 391 kts | 233° |
| 2026-05-06 11:17 | 39.50853 | 2.30681 | 33942 ft | 392 kts | 240° |
| 2026-05-06 11:18 | 39.48128 | 2.24598 | 33958 ft | 391 kts | 241° |
| 2026-05-06 11:18 | 39.45422 | 2.18471 | 33945 ft | 390 kts | 241° |
| 2026-05-06 11:19 | 39.42700 | 2.12385 | 33961 ft | 390 kts | 240° |
| 2026-05-06 11:19 | 39.39972 | 2.06347 | 33959 ft | 390 kts | 240° |
| 2026-05-06 11:20 | 39.37210 | 2.00260 | 33918 ft | 392 kts | 240° |
| 2026-05-06 11:20 | 39.35845 | 1.97255 | 33515 ft | 393 kts | 240° |
| 2026-05-06 11:20 | 39.34443 | 1.94172 | 32976 ft | 394 kts | 240° |
| 2026-05-06 11:20 | 39.33048 | 1.91107 | 32417 ft | 396 kts | 240° |
| 2026-05-06 11:21 | 39.31659 | 1.88057 | 31920 ft | 399 kts | 240° |
| 2026-05-06 11:21 | 39.30242 | 1.84949 | 31413 ft | 401 kts | 240° |
| 2026-05-06 11:21 | 39.28818 | 1.81828 | 30912 ft | 403 kts | 240° |
| 2026-05-06 11:21 | 39.27405 | 1.78733 | 30446 ft | 405 kts | 240° |
| 2026-05-06 11:22 | 39.25970 | 1.75595 | 29961 ft | 407 kts | 240° |
| 2026-05-06 11:22 | 39.24519 | 1.72425 | 29394 ft | 409 kts | 240° |
| 2026-05-06 11:22 | 39.23066 | 1.69251 | 28841 ft | 411 kts | 240° |
| 2026-05-06 11:22 | 39.21626 | 1.66110 | 28302 ft | 413 kts | 240° |
| 2026-05-06 11:23 | 39.20156 | 1.62909 | 27770 ft | 415 kts | 240° |
| 2026-05-06 11:23 | 39.18678 | 1.59693 | 27248 ft | 417 kts | 240° |
| 2026-05-06 11:23 | 39.17187 | 1.56450 | 26721 ft | 419 kts | 240° |
| 2026-05-06 11:23 | 39.15709 | 1.53240 | 26237 ft | 421 kts | 240° |
| 2026-05-06 11:24 | 39.14210 | 1.49988 | 25746 ft | 423 kts | 240° |
| 2026-05-06 11:24 | 39.12706 | 1.46719 | 25268 ft | 424 kts | 241° |
| 2026-05-06 11:24 | 39.11403 | 1.43330 | 24795 ft | 426 kts | 246° |
| 2026-05-06 11:24 | 39.10231 | 1.39813 | 24300 ft | 428 kts | 247° |
| 2026-05-06 11:25 | 39.09108 | 1.36244 | 23857 ft | 428 kts | 248° |
| 2026-05-06 11:25 | 39.08017 | 1.32671 | 23360 ft | 427 kts | 248° |
| 2026-05-06 11:25 | 39.06941 | 1.29100 | 22813 ft | 425 kts | 248° |
| 2026-05-06 11:25 | 39.05887 | 1.25598 | 22281 ft | 422 kts | 248° |
| 2026-05-06 11:26 | 39.04820 | 1.22067 | 21754 ft | 420 kts | 248° |
| 2026-05-06 11:26 | 39.03757 | 1.18569 | 21241 ft | 417 kts | 248° |
| 2026-05-06 11:26 | 39.02710 | 1.15138 | 20781 ft | 415 kts | 248° |
| 2026-05-06 11:26 | 39.01649 | 1.11675 | 20366 ft | 413 kts | 248° |
| 2026-05-06 11:27 | 39.00604 | 1.08275 | 19947 ft | 411 kts | 248° |
| 2026-05-06 11:27 | 38.99547 | 1.04840 | 19537 ft | 410 kts | 248° |
| 2026-05-06 11:27 | 38.98496 | 1.01429 | 19130 ft | 408 kts | 248° |
| 2026-05-06 11:27 | 38.97462 | 0.98076 | 18733 ft | 407 kts | 248° |
| 2026-05-06 11:28 | 38.96415 | 0.94686 | 18349 ft | 406 kts | 248° |
| 2026-05-06 11:28 | 38.95371 | 0.91308 | 17893 ft | 404 kts | 248° |
| 2026-05-06 11:28 | 38.94347 | 0.87995 | 17451 ft | 402 kts | 248° |
| 2026-05-06 11:28 | 38.93313 | 0.84657 | 16994 ft | 400 kts | 248° |
| 2026-05-06 11:29 | 38.92291 | 0.81359 | 16560 ft | 398 kts | 248° |
| 2026-05-06 11:29 | 38.91269 | 0.78064 | 16127 ft | 395 kts | 248° |
| 2026-05-06 11:29 | 38.90247 | 0.74776 | 15699 ft | 394 kts | 248° |
| 2026-05-06 11:29 | 38.89232 | 0.71510 | 15247 ft | 392 kts | 248° |
| 2026-05-06 11:30 | 38.88230 | 0.68292 | 14801 ft | 391 kts | 248° |
| 2026-05-06 11:30 | 38.87221 | 0.65057 | 14375 ft | 389 kts | 248° |
| 2026-05-06 11:30 | 38.86208 | 0.61813 | 13924 ft | 387 kts | 248° |
| 2026-05-06 11:30 | 38.85215 | 0.58638 | 13558 ft | 386 kts | 248° |
| 2026-05-06 11:31 | 38.84216 | 0.55446 | 13322 ft | 384 kts | 248° |
| 2026-05-06 11:31 | 38.83228 | 0.52292 | 13052 ft | 383 kts | 248° |
| 2026-05-06 11:31 | 38.82229 | 0.49120 | 12786 ft | 382 kts | 248° |
| 2026-05-06 11:31 | 38.81173 | 0.45987 | 12534 ft | 381 kts | 246° |
| 2026-05-06 11:32 | 38.80094 | 0.42889 | 12275 ft | 380 kts | 246° |
| 2026-05-06 11:32 | 38.79012 | 0.39798 | 12015 ft | 379 kts | 246° |
| 2026-05-06 11:32 | 38.77946 | 0.36758 | 11757 ft | 378 kts | 246° |
| 2026-05-06 11:32 | 38.76868 | 0.33681 | 11510 ft | 377 kts | 246° |
| 2026-05-06 11:33 | 38.75789 | 0.30605 | 11266 ft | 376 kts | 246° |
| 2026-05-06 11:33 | 38.74730 | 0.27585 | 11016 ft | 374 kts | 246° |
| 2026-05-06 11:33 | 38.73663 | 0.24548 | 10774 ft | 373 kts | 246° |
| 2026-05-06 11:33 | 38.72597 | 0.21515 | 10528 ft | 372 kts | 246° |
| 2026-05-06 11:34 | 38.71542 | 0.18515 | 10287 ft | 371 kts | 246° |
| 2026-05-06 11:34 | 38.70478 | 0.15494 | 10047 ft | 370 kts | 246° |
| 2026-05-06 11:34 | 38.69435 | 0.12536 | 9801 ft | 363 kts | 246° |
| 2026-05-06 11:34 | 38.68413 | 0.09640 | 9529 ft | 349 kts | 246° |
| 2026-05-06 11:35 | 38.67431 | 0.06861 | 9258 ft | 337 kts | 246° |
| 2026-05-06 11:35 | 38.66477 | 0.04161 | 8982 ft | 325 kts | 246° |
| 2026-05-06 11:35 | 38.65569 | 0.01593 | 8735 ft | 314 kts | 246° |
| 2026-05-06 11:35 | 38.64678 | -0.00924 | 8456 ft | 305 kts | 246° |
| 2026-05-06 11:36 | 38.63808 | -0.03375 | 8190 ft | 297 kts | 246° |
| 2026-05-06 11:36 | 38.62965 | -0.05750 | 7938 ft | 289 kts | 246° |
| 2026-05-06 11:36 | 38.62150 | -0.08046 | 7675 ft | 282 kts | 246° |
| 2026-05-06 11:36 | 38.61356 | -0.10280 | 7417 ft | 275 kts | 246° |
| 2026-05-06 11:37 | 38.60568 | -0.12498 | 7161 ft | 272 kts | 246° |
| 2026-05-06 11:37 | 38.59779 | -0.14716 | 6988 ft | 272 kts | 245° |
| 2026-05-06 11:37 | 38.59003 | -0.16896 | 6962 ft | 273 kts | 245° |
| 2026-05-06 11:37 | 38.58213 | -0.19112 | 6960 ft | 273 kts | 246° |
| 2026-05-06 11:38 | 38.57423 | -0.21329 | 6956 ft | 273 kts | 245° |
| 2026-05-06 11:38 | 38.56642 | -0.23518 | 6739 ft | 273 kts | 245° |
| 2026-05-06 11:38 | 38.55849 | -0.25738 | 6492 ft | 274 kts | 245° |
| 2026-05-06 11:38 | 38.55053 | -0.27965 | 6247 ft | 274 kts | 245° |
| 2026-05-06 11:39 | 38.54269 | -0.30157 | 6015 ft | 273 kts | 245° |
| 2026-05-06 11:39 | 38.53479 | -0.32364 | 5957 ft | 273 kts | 245° |
| 2026-05-06 11:39 | 38.52687 | -0.34576 | 5960 ft | 273 kts | 245° |
| 2026-05-06 11:39 | 38.51891 | -0.36796 | 6007 ft | 274 kts | 245° |
| 2026-05-06 11:40 | 38.51107 | -0.38980 | 6004 ft | 274 kts | 245° |
| 2026-05-06 11:40 | 38.50311 | -0.41196 | 6006 ft | 274 kts | 245° |
| 2026-05-06 11:40 | 38.49517 | -0.43404 | 6006 ft | 274 kts | 245° |
| 2026-05-06 11:40 | 38.48722 | -0.45617 | 6004 ft | 274 kts | 245° |
| 2026-05-06 11:41 | 38.47938 | -0.47795 | 6001 ft | 274 kts | 245° |
| 2026-05-06 11:41 | 38.47141 | -0.50010 | 5999 ft | 274 kts | 245° |
| 2026-05-06 11:41 | 38.46342 | -0.52225 | 5941 ft | 274 kts | 245° |
| 2026-05-06 11:41 | 38.45546 | -0.54435 | 5816 ft | 273 kts | 245° |
| 2026-05-06 11:42 | 38.44748 | -0.56645 | 5636 ft | 274 kts | 245° |
| 2026-05-06 11:42 | 38.43966 | -0.58811 | 5375 ft | 269 kts | 245° |
| 2026-05-06 11:42 | 38.43188 | -0.60963 | 5120 ft | 263 kts | 245° |
| 2026-05-06 11:42 | 38.42438 | -0.63038 | 4932 ft | 255 kts | 245° |
| 2026-05-06 11:43 | 38.41705 | -0.65061 | 4791 ft | 245 kts | 245° |
| 2026-05-06 11:43 | 38.41019 | -0.66957 | 4697 ft | 229 kts | 245° |
| 2026-05-06 11:43 | 38.40369 | -0.68750 | 4594 ft | 213 kts | 244° |
| 2026-05-06 11:44 | 38.39214 | -0.71938 | 4589 ft | 190 kts | 244° |
| 2026-05-06 11:44 | 38.38691 | -0.73379 | 4598 ft | 167 kts | 245° |
| 2026-05-06 11:44 | 38.38237 | -0.74630 | 4583 ft | 151 kts | 245° |
| 2026-05-06 11:44 | 38.37800 | -0.75835 | 4601 ft | 151 kts | 244° |
| 2026-05-06 11:45 | 38.37354 | -0.77060 | 4608 ft | 150 kts | 244° |
| 2026-05-06 11:45 | 38.36920 | -0.78254 | 4599 ft | 148 kts | 243° |
| 2026-05-06 11:45 | 38.36484 | -0.79451 | 4600 ft | 148 kts | 244° |
| 2026-05-06 11:45 | 38.36055 | -0.80631 | 4608 ft | 148 kts | 244° |
| 2026-05-06 11:46 | 38.35617 | -0.81831 | 4604 ft | 148 kts | 244° |
| 2026-05-06 11:46 | 38.35185 | -0.83018 | 4603 ft | 148 kts | 243° |
| 2026-05-06 11:46 | 38.34747 | -0.84220 | 4603 ft | 148 kts | 243° |
| 2026-05-06 11:46 | 38.34268 | -0.85370 | 4601 ft | 148 kts | 235° |
| 2026-05-06 11:47 | 38.33611 | -0.86373 | 4600 ft | 147 kts | 221° |
| 2026-05-06 11:47 | 38.32771 | -0.87070 | 4581 ft | 146 kts | 189° |
| 2026-05-06 11:47 | 38.31887 | -0.86666 | 4549 ft | 141 kts | 125° |
| 2026-05-06 11:47 | 38.31691 | -0.85461 | 4476 ft | 143 kts | 91° |
| 2026-05-06 11:48 | 38.31748 | -0.84164 | 4285 ft | 147 kts | 88° |
| 2026-05-06 11:48 | 38.31795 | -0.82878 | 4157 ft | 146 kts | 92° |
| 2026-05-06 11:48 | 38.31738 | -0.81591 | 3925 ft | 144 kts | 99° |
| 2026-05-06 11:48 | 38.31593 | -0.80331 | 3721 ft | 142 kts | 101° |
| 2026-05-06 11:49 | 38.31431 | -0.79107 | 3510 ft | 141 kts | 102° |
| 2026-05-06 11:49 | 38.31265 | -0.77880 | 3341 ft | 141 kts | 101° |
| 2026-05-06 11:49 | 38.31100 | -0.76650 | 3153 ft | 140 kts | 101° |
| 2026-05-06 11:49 | 38.30934 | -0.75445 | 2977 ft | 138 kts | 98° |
| 2026-05-06 11:50 | 38.30773 | -0.74266 | 2774 ft | 132 kts | 98° |
| 2026-05-06 11:50 | 38.30616 | -0.73128 | 2608 ft | 128 kts | 98° |
| 2026-05-06 11:50 | 38.30462 | -0.72022 | 2436 ft | 128 kts | 98° |
| 2026-05-06 11:50 | 38.30307 | -0.70897 | 2269 ft | 129 kts | 98° |
| 2026-05-06 11:51 | 38.30150 | -0.69773 | 2094 ft | 129 kts | 98° |
| 2026-05-06 11:51 | 38.29994 | -0.68647 | 1901 ft | 128 kts | 99° |
| 2026-05-06 11:51 | 38.29842 | -0.67545 | 1746 ft | 128 kts | 99° |
| 2026-05-06 11:51 | 38.29686 | -0.66427 | 1577 ft | 127 kts | 98° |
| 2026-05-06 11:52 | 38.29538 | -0.65348 | 1406 ft | 122 kts | 100° |
| 2026-05-06 11:52 | 38.29391 | -0.64286 | 1245 ft | 122 kts | 99° |
| 2026-05-06 11:52 | 38.29241 | -0.63206 | 1076 ft | 125 kts | 99° |
| 2026-05-06 11:52 | 38.29089 | -0.62114 | 922 ft | 128 kts | 99° |
| 2026-05-06 11:53 | 38.28935 | -0.61003 | 749 ft | 123 kts | 98° |
| 2026-05-06 11:53 | 38.28790 | -0.59954 | 588 ft | 119 kts | 99° |
| 2026-05-06 11:53 | 38.28684 | -0.59208 | 465 ft | 118 kts | 99° |
| 2026-05-06 11:53 | 38.28602 | -0.58634 | 389 ft | 120 kts | 98° |
| 2026-05-06 11:54 | 38.28461 | -0.57579 | 218 ft | 122 kts | 98° |
| 2026-05-06 11:54 | 38.28311 | -0.56518 | 122 ft | 117 kts | 99° |
| 2026-05-06 11:54 | 38.28192 | -0.55664 | 100 ft | 70 kts | 99° |
| 2026-05-06 11:54 | 38.28159 | -0.55391 | 90 ft | 19 kts | 99° |
| 2026-05-06 11:55 | 38.28292 | -0.56379 | 116 ft | 115 kts | 99° |
| 2026-05-06 11:55 | 38.28379 | -0.56986 | 150 ft | 123 kts | 99° |
| 2026-05-06 11:55 | 38.28173 | -0.55498 | 95 ft | 34 kts | 99° |
| 2026-05-06 11:55 | 38.28138 | -0.55214 | 87 ft | 32 kts | 98° |
| 2026-05-06 11:56 | 38.28136 | -0.54965 | 68 ft | 27 kts | 81° |
| 2026-05-06 11:56 | 38.28179 | -0.54770 | 67 ft | 0 kts | 70° |
| 2026-05-06 11:57 | 38.28194 | -0.54730 | 63 ft | 11 kts | 51° |
| 2026-05-06 11:57 | 38.28245 | -0.54748 | 69 ft | 8 kts | 288° |
| 2026-05-06 11:57 | 38.28257 | -0.54821 | 65 ft | 11 kts | 281° |
| 2026-05-06 11:57 | 38.28270 | -0.54915 | 63 ft | 13 kts | 279° |
| 2026-05-06 11:58 | 38.28291 | -0.55072 | 77 ft | 20 kts | 280° |
| 2026-05-06 11:58 | 38.28321 | -0.55200 | 89 ft | 11 kts | 320° |
| 2026-05-06 11:58 | 38.28380 | -0.55172 | 86 ft | 11 kts | 45° |
| 2026-05-06 11:58 | 38.28435 | -0.55175 | 88 ft | 7 kts | 308° |
| 2026-05-06 11:59 | 38.28445 | -0.55228 | 89 ft | 7 kts | 279° |
| 2026-05-06 11:59 | 38.28451 | -0.55272 | 90 ft | 3 kts | 279° |
| 2026-05-06 11:59 | 38.28455 | -0.55284 | 90 ft | 1 kts | 302° |
| 2026-05-06 12:00 | 38.28458 | -0.55284 | 93 ft | 1 kts | 335° |
| 2026-05-06 12:00 | 38.28500 | -0.55285 | 94 ft | 8 kts | 11° |
| 2026-05-06 12:00 | 38.28529 | -0.55278 | 92 ft | 0 kts | 10° |